Terminal Aerodrome Forecast
Issued by NWS

Home | Current Version | Previous Version | Text Only | Print | Product List | Glossary Off
Versions: 1 2 3 4 5 6 7 8 9 10 11 12 13 14 15 16 17

030
FTUS43 KICT 280842 AAA
TAFSLN
TAF AMD
KSLN 280842Z 2809/2906 09012G19KT P6SM VCTS SCT015 OVC025CB
     FM281000 11009KT 6SM BR OVC015
     FM281200 12007KT 5SM BR OVC008
     FM281400 17008KT P6SM BKN015
     FM281600 30008KT P6SM BKN030
     FM290000 03012KT P6SM VCSH OVC025=

USA.gov is the U.S. government's official web portal to all federal, state and local government web resources and services.